Time;durP1;ratioP1;P1;durP2;ratioP2;P2;SDS_P1;SDS_P2;PMS_P1;PMS_P2;Temp;Humidity;BMP_temperature;BMP_pressure;BME280_temperature;BME280_humidity;BME280_pressure;Samples;Min_cycle;Max_cycle;Signal;HPM_P1;HPM_P2
2021/08/29 00:00:11;;;;;;;3.03;2.23;;;9.60;94.20;;;;;;2097612;28;20178;-63
2021/08/29 00:01:12;;;;;;;1.90;1.67;;;9.60;93.80;;;;;;2097776;28;20190;-65
2021/08/29 00:02:12;;;;;;;4.23;2.63;;;9.60;93.70;;;;;;2097575;28;20182;-74
2021/08/29 00:03:13;;;;;;;3.27;2.13;;;9.60;93.80;;;;;;2088800;28;20180;-73
2021/08/29 00:04:14;;;;;;;3.20;2.73;;;9.60;93.90;;;;;;2088779;28;20268;-73
2021/08/29 00:05:15;;;;;;;4.07;2.27;;;9.70;94.00;;;;;;2089533;28;20207;-67
2021/08/29 00:06:16;;;;;;;3.70;2.73;;;9.60;94.20;;;;;;2097567;28;20198;-69
2021/08/29 00:07:16;;;;;;;4.60;3.33;;;9.60;94.30;;;;;;2098304;28;20277;-68
2021/08/29 00:08:17;;;;;;;4.67;3.17;;;9.60;94.30;;;;;;2098230;28;20634;-67
2021/08/29 00:09:17;;;;;;;3.77;3.03;;;9.70;94.30;;;;;;2098048;28;20190;-67
2021/08/29 00:10:18;;;;;;;7.17;3.13;;;9.70;94.20;;;;;;2097044;28;20186;-68
2021/08/29 00:11:19;;;;;;;3.77;2.70;;;9.70;94.20;;;;;;2089405;28;20186;-67
2021/08/29 00:12:19;;;;;;;4.80;3.17;;;9.70;94.10;;;;;;2097017;28;20218;-67
2021/08/29 00:13:20;;;;;;;4.77;3.20;;;9.70;94.20;;;;;;2098198;28;20186;-67
2021/08/29 00:14:21;;;;;;;3.83;3.03;;;9.70;94.40;;;;;;2096589;28;20257;-71
2021/08/29 00:15:22;;;;;;;4.53;2.93;;;9.70;94.50;;;;;;2092849;28;20186;-68
2021/08/29 00:16:22;;;;;;;5.53;3.37;;;9.60;94.50;;;;;;2096958;28;20593;-68
2021/08/29 00:17:23;;;;;;;5.37;3.77;;;9.60;94.50;;;;;;2098205;28;20188;-67
2021/08/29 00:18:24;;;;;;;5.67;3.70;;;9.60;94.60;;;;;;2098311;28;20183;-69
2021/08/29 00:19:24;;;;;;;4.13;2.77;;;9.60;94.60;;;;;;2097219;28;20683;-67
2021/08/29 00:20:25;;;;;;;3.23;2.47;;;9.70;94.50;;;;;;2097973;28;20198;-67
2021/08/29 00:21:26;;;;;;;3.90;3.00;;;9.70;94.40;;;;;;2094910;28;20716;-69
2021/08/29 00:22:26;;;;;;;6.27;3.30;;;9.70;94.50;;;;;;2094050;28;20564;-68
2021/08/29 00:23:27;;;;;;;5.83;3.43;;;9.70;94.40;;;;;;2092961;28;20688;-67
2021/08/29 00:24:28;;;;;;;4.30;2.78;;;9.70;94.40;;;;;;2096418;28;20264;-68
2021/08/29 00:25:29;;;;;;;4.50;2.80;;;9.80;95.00;;;;;;2097458;28;20190;-67
2021/08/29 00:26:29;;;;;;;4.90;3.13;;;9.80;94.40;;;;;;2097597;28;20181;-67
2021/08/29 00:27:30;;;;;;;5.20;2.83;;;9.90;94.30;;;;;;2095847;28;20185;-68
2021/08/29 00:28:31;;;;;;;4.07;2.80;;;9.90;94.00;;;;;;2098100;28;20603;-67
2021/08/29 00:29:32;;;;;;;2.27;1.97;;;9.90;93.90;;;;;;2091048;28;20192;-68
2021/08/29 00:30:32;;;;;;;4.03;2.67;;;9.90;94.00;;;;;;2098221;28;20708;-68
2021/08/29 00:31:33;;;;;;;2.87;2.03;;;9.90;94.10;;;;;;2097419;28;20175;-68
2021/08/29 00:32:34;;;;;;;5.23;3.17;;;9.90;94.10;;;;;;2095103;28;20272;-67
2021/08/29 00:33:35;;;;;;;3.67;3.30;;;10.00;94.10;;;;;;2097327;28;20558;-68
2021/08/29 00:34:35;;;;;;;4.13;3.30;;;9.90;94.10;;;;;;2097514;28;20306;-68
2021/08/29 00:35:36;;;;;;;5.47;3.03;;;9.90;94.10;;;;;;2097352;28;20174;-69
2021/08/29 00:36:37;;;;;;;5.43;3.17;;;9.90;94.20;;;;;;2096780;28;20190;-67
2021/08/29 00:37:37;;;;;;;5.47;3.00;;;10.00;94.20;;;;;;2097712;28;20546;-67
2021/08/29 00:38:38;;;;;;;5.80;2.93;;;10.00;94.20;;;;;;2099784;28;20696;-68
2021/08/29 00:39:39;;;;;;;4.43;2.93;;;10.10;94.10;;;;;;2099496;28;20187;-68
2021/08/29 00:40:40;;;;;;;10.57;3.55;;;10.10;94.10;;;;;;2098450;28;20203;-67
2021/08/29 00:41:42;;;;;;;4.47;3.40;;;10.10;94.10;;;;;;2090624;28;20280;-68
2021/08/29 00:42:45;;;;;;;3.60;2.90;;;10.20;94.20;;;;;;2099011;28;20573;-68
2021/08/29 00:43:46;;;;;;;7.07;3.38;;;10.20;94.10;;;;;;2099725;28;20176;-67
2021/08/29 00:44:47;;;;;;;5.77;3.17;;;10.20;94.10;;;;;;2099221;28;20183;-68
2021/08/29 00:45:47;;;;;;;4.87;2.97;;;10.20;94.20;;;;;;2098968;28;20190;-67
2021/08/29 00:46:48;;;;;;;7.33;4.20;;;10.20;94.20;;;;;;2099099;28;20635;-68
2021/08/29 00:47:50;;;;;;;3.97;2.93;;;10.20;94.20;;;;;;2098862;28;20192;-67
2021/08/29 00:48:52;;;;;;;5.53;3.30;;;10.20;94.20;;;;;;2090130;28;20183;-69
2021/08/29 00:49:53;;;;;;;5.65;3.60;;;10.20;94.10;;;;;;2098501;28;20176;-67
2021/08/29 00:50:54;;;;;;;6.23;3.27;;;10.20;94.00;;;;;;2099560;28;20207;-67
2021/08/29 00:52:01;;;;;;;5.20;3.40;;;10.10;94.00;;;;;;2099212;28;20202;-69
2021/08/29 00:53:07;;;;;;;5.40;3.60;;;10.10;94.00;;;;;;2091777;28;20167;-68
2021/08/29 00:54:08;;;;;;;6.10;3.67;;;10.10;94.00;;;;;;2098994;28;20299;-67
2021/08/29 00:55:10;;;;;;;4.10;3.37;;;10.10;93.90;;;;;;2099749;28;20197;-68
2021/08/29 00:56:11;;;;;;;3.83;3.28;;;10.10;93.90;;;;;;2099598;28;20223;-68
2021/08/29 00:57:12;;;;;;;6.43;2.70;;;10.10;93.90;;;;;;2099015;28;20226;-67
2021/08/29 00:58:13;;;;;;;3.90;2.37;;;10.00;93.80;;;;;;2098970;28;20651;-67
2021/08/29 00:59:13;;;;;;;6.40;2.90;;;10.00;93.70;;;;;;2099477;28;20180;-67
2021/08/29 01:00:14;;;;;;;6.03;4.13;;;10.00;93.60;;;;;;2099638;28;20743;-67
2021/08/29 01:01:22;;;;;;;4.90;3.35;;;10.00;93.60;;;;;;2099719;28;20182;-68
2021/08/29 01:02:27;;;;;;;4.43;3.00;;;10.00;93.80;;;;;;2099028;28;20571;-67
2021/08/29 01:03:29;;;;;;;8.88;3.45;;;9.90;93.80;;;;;;2091590;28;20175;-67
2021/08/29 01:04:49;;;;;;;6.00;3.70;;;9.90;93.90;;;;;;2098940;28;20207;-67
2021/08/29 01:06:20;;;;;;;3.83;2.95;;;9.90;93.80;;;;;;2099157;28;20175;-67
2021/08/29 01:07:33;;;;;;;5.00;3.20;;;9.90;94.10;;;;;;2094676;28;20171;-67
2021/08/29 01:08:40;;;;;;;4.10;2.75;;;9.80;94.10;;;;;;2092509;28;20260;-67
2021/08/29 01:09:43;;;;;;;5.25;3.50;;;9.80;94.10;;;;;;2091563;28;20262;-68
2021/08/29 01:10:58;;;;;;;4.40;3.00;;;9.80;94.20;;;;;;2090780;28;20698;-67
2021/08/29 01:11:59;;;;;;;5.10;2.95;;;9.90;94.20;;;;;;2092511;28;20649;-67
2021/08/29 01:13:00;;;;;;;5.13;3.83;;;9.90;94.20;;;;;;2090788;28;20179;-67
2021/08/29 01:14:04;;;;;;;5.10;3.28;;;9.90;94.20;;;;;;2090564;28;20270;-67
2021/08/29 01:15:06;;;;;;;7.00;3.47;;;9.90;94.30;;;;;;2098906;28;20179;-67
2021/08/29 01:16:11;;;;;;;5.78;4.18;;;10.00;94.40;;;;;;2099624;28;20187;-67
2021/08/29 01:17:13;;;;;;;4.97;3.28;;;10.00;94.50;;;;;;2098830;28;20180;-68
2021/08/29 01:18:15;;;;;;;6.15;3.92;;;10.00;94.40;;;;;;2090910;28;20284;-69
2021/08/29 01:19:17;;;;;;;5.15;3.42;;;10.00;94.50;;;;;;2090588;28;20230;-67
2021/08/29 01:20:29;;;;;;;5.63;3.58;;;10.10;94.50;;;;;;2098807;28;20583;-67
2021/08/29 01:21:35;;;;;;;6.65;4.03;;;10.10;94.50;;;;;;2098904;28;20171;-68
2021/08/29 01:22:39;;;;;;;6.05;3.95;;;10.10;94.50;;;;;;2091398;28;20164;-67
2021/08/29 01:23:44;;;;;;;6.13;2.88;;;10.10;94.50;;;;;;2090929;28;20229;-67
2021/08/29 01:24:46;;;;;;;5.68;3.80;;;10.10;94.50;;;;;;2091044;28;20267;-67
2021/08/29 01:25:55;;;;;;;4.88;3.03;;;10.20;94.30;;;;;;2090701;28;20226;-67
2021/08/29 01:27:07;;;;;;;5.15;3.00;;;10.20;94.00;;;;;;2091737;28;20599;-69
2021/08/29 01:28:15;;;;;;;5.65;2.67;;;10.30;93.80;;;;;;2092103;28;20168;-69
2021/08/29 01:29:19;;;;;;;4.13;3.17;;;10.40;93.60;;;;;;2098765;28;20178;-67
2021/08/29 01:30:20;;;;;;;6.95;2.67;;;10.30;93.40;;;;;;2098712;28;20570;-69
2021/08/29 01:31:24;;;;;;;4.13;2.70;;;10.40;93.50;;;;;;2090604;28;20244;-67
2021/08/29 01:32:25;;;;;;;5.20;3.33;;;10.40;93.40;;;;;;2090872;28;20187;-67
2021/08/29 01:33:26;;;;;;;4.53;3.10;;;10.30;93.40;;;;;;2090593;28;20184;-69
2021/08/29 01:34:27;;;;;;;4.20;2.63;;;10.30;93.40;;;;;;2081950;28;20220;-68
2021/08/29 01:35:28;;;;;;;7.20;3.35;;;10.30;93.50;;;;;;2090489;28;20176;-67
2021/08/29 01:36:32;;;;;;;4.47;3.43;;;10.30;93.50;;;;;;2090435;28;20190;-67
2021/08/29 01:37:33;;;;;;;4.10;3.33;;;10.30;93.60;;;;;;2082695;28;20606;-68
2021/08/29 01:38:34;;;;;;;6.30;3.25;;;10.30;93.60;;;;;;2090518;28;20723;-67
2021/08/29 01:39:35;;;;;;;3.57;2.60;;;10.30;93.60;;;;;;2098416;28;20182;-68
2021/08/29 01:40:37;;;;;;;4.87;2.97;;;10.30;93.60;;;;;;2090410;28;20206;-67
2021/08/29 01:41:40;;;;;;;2.72;2.25;;;10.40;93.60;;;;;;2090602;28;20181;-67
2021/08/29 01:42:42;;;;;;;5.25;2.58;;;10.30;93.50;;;;;;2090686;28;20690;-67
2021/08/29 01:43:44;;;;;;;4.40;2.40;;;10.30;93.40;;;;;;2101319;28;20220;-68
2021/08/29 01:44:46;;;;;;;2.95;1.90;;;10.30;93.40;;;;;;2098720;28;20175;-67
2021/08/29 01:45:47;;;;;;;1.75;1.40;;;10.20;93.50;;;;;;2090586;28;20177;-67
2021/08/29 01:46:48;;;;;;;4.00;1.75;;;10.20;93.40;;;;;;2098610;28;20545;-67
2021/08/29 01:47:54;;;;;;;2.80;2.50;;;10.20;93.30;;;;;;2098716;28;20183;-68
2021/08/29 01:48:56;;;;;;;2.92;2.15;;;10.20;93.30;;;;;;2097972;28;20639;-68
2021/08/29 01:49:59;;;;;;;4.10;2.83;;;10.20;93.30;;;;;;2098032;28;20179;-68
2021/08/29 01:51:02;;;;;;;2.95;2.45;;;10.20;93.30;;;;;;2090359;28;20705;-67
2021/08/29 01:52:03;;;;;;;3.30;2.10;;;10.20;93.20;;;;;;2098751;28;20180;-68
2021/08/29 01:53:04;;;;;;;3.08;2.08;;;10.20;93.20;;;;;;2099407;28;20233;-67
2021/08/29 01:54:06;;;;;;;4.03;2.42;;;10.20;93.10;;;;;;2099235;28;20608;-67
2021/08/29 01:55:07;;;;;;;2.88;2.25;;;10.20;93.00;;;;;;2099253;28;20195;-68
2021/08/29 01:56:08;;;;;;;3.58;2.60;;;10.20;93.20;;;;;;2099159;28;20183;-67
2021/08/29 01:57:13;;;;;;;3.25;2.05;;;10.10;93.40;;;;;;2098493;28;20646;-68
2021/08/29 01:58:14;;;;;;;2.83;2.08;;;10.10;93.50;;;;;;2091006;28;20188;-67
2021/08/29 01:59:15;;;;;;;3.23;2.60;;;10.10;93.60;;;;;;2098556;28;20219;-68
2021/08/29 02:00:17;;;;;;;3.03;2.30;;;10.00;93.70;;;;;;2099133;28;20189;-70
2021/08/29 02:01:17;;;;;;;4.22;2.30;;;10.10;93.70;;;;;;2099162;28;20259;-68
2021/08/29 02:02:18;;;;;;;3.07;2.17;;;10.10;93.60;;;;;;2098633;28;20187;-68
2021/08/29 02:03:20;;;;;;;2.33;2.13;;;10.10;93.60;;;;;;2090173;28;20190;-67
2021/08/29 02:04:22;;;;;;;3.22;2.20;;;10.20;93.50;;;;;;2098721;28;20183;-68
2021/08/29 02:05:23;;;;;;;3.42;2.45;;;10.10;93.50;;;;;;2098519;28;20183;-67
2021/08/29 02:06:47;;;;;;;3.97;2.60;;;10.10;93.60;;;;;;2090292;28;20631;-67
2021/08/29 02:07:50;;;;;;;4.47;2.72;;;10.10;93.70;;;;;;2093467;28;20262;-67
2021/08/29 02:09:04;;;;;;;3.90;2.35;;;10.20;93.60;;;;;;2092167;28;20269;-66
2021/08/29 02:10:11;;;;;;;3.00;2.00;;;10.20;93.50;;;;;;2098324;28;20635;-67
2021/08/29 02:11:12;;;;;;;4.53;2.90;;;10.20;93.50;;;;;;2090931;28;20191;-67
2021/08/29 02:12:12;;;;;;;7.78;2.92;;;10.20;93.40;;;;;;2090180;28;20718;-67
2021/08/29 02:13:15;;;;;;;3.33;2.53;;;10.30;93.50;;;;;;2098538;28;20188;-68
2021/08/29 02:14:27;;;;;;;4.07;2.90;;;10.30;93.30;;;;;;2098439;28;20211;-67
2021/08/29 02:15:33;;;;;;;1.98;1.70;;;10.30;93.10;;;;;;2091905;28;20196;-68
2021/08/29 02:16:41;;;;;;;2.88;2.58;;;10.30;93.10;;;;;;2090804;28;20171;-66
2021/08/29 02:17:42;;;;;;;2.65;2.05;;;10.30;93.10;;;;;;2091197;28;20199;-71
2021/08/29 02:18:46;;;;;;;3.15;2.50;;;10.30;93.20;;;;;;2090090;28;20648;-66
2021/08/29 02:19:49;;;;;;;4.97;2.88;;;10.30;93.20;;;;;;2090434;28;20184;-68
2021/08/29 02:20:51;;;;;;;2.92;2.38;;;10.30;93.20;;;;;;2098226;28;20201;-69
2021/08/29 02:21:53;;;;;;;3.30;2.15;;;10.30;93.10;;;;;;2098480;28;20662;-69
2021/08/29 02:22:54;;;;;;;3.03;2.28;;;10.30;93.20;;;;;;2090313;28;20183;-70
2021/08/29 02:23:58;;;;;;;2.88;2.55;;;10.40;93.10;;;;;;2098570;28;20174;-68
2021/08/29 02:25:05;;;;;;;4.40;2.30;;;10.30;93.20;;;;;;2098222;28;20662;-70
2021/08/29 02:26:06;;;;;;;2.90;2.15;;;10.30;93.20;;;;;;2098451;28;20171;-67
2021/08/29 02:27:09;;;;;;;3.33;2.50;;;10.40;93.20;;;;;;2098342;28;20251;-67
2021/08/29 02:28:11;;;;;;;3.13;2.47;;;10.40;93.20;;;;;;2090544;28;20184;-67
2021/08/29 02:29:13;;;;;;;3.85;2.08;;;10.40;93.30;;;;;;2089959;28;20226;-69
2021/08/29 02:30:14;;;;;;;3.47;2.92;;;10.40;93.30;;;;;;2098357;28;20186;-68
2021/08/29 02:31:20;;;;;;;4.38;3.10;;;10.40;93.20;;;;;;2098918;28;20172;-66
2021/08/29 02:32:21;;;;;;;3.92;2.55;;;10.40;93.30;;;;;;2099144;28;20168;-67
2021/08/29 02:33:23;;;;;;;5.20;3.47;;;10.40;93.30;;;;;;2098833;28;20176;-67
2021/08/29 02:34:24;;;;;;;4.55;3.00;;;10.30;93.30;;;;;;2098264;28;20206;-67
2021/08/29 02:35:25;;;;;;;4.77;3.10;;;10.30;93.40;;;;;;2090142;28;20211;-67
2021/08/29 02:36:27;;;;;;;4.37;2.87;;;10.30;94.00;;;;;;2090142;28;20172;-68
2021/08/29 02:37:29;;;;;;;3.95;2.88;;;10.30;93.60;;;;;;2090147;28;20184;-66
2021/08/29 02:38:30;;;;;;;4.90;2.90;;;10.30;93.60;;;;;;2098408;28;20177;-67
2021/08/29 02:39:34;;;;;;;4.40;2.70;;;10.30;93.60;;;;;;2098003;28;20164;-67
2021/08/29 02:40:42;;;;;;;4.10;2.90;;;10.30;93.60;;;;;;2098310;28;20225;-67
2021/08/29 02:41:43;;;;;;;5.85;2.25;;;10.30;93.50;;;;;;2091121;28;20674;-66
2021/08/29 02:42:44;;;;;;;3.90;2.53;;;10.40;93.40;;;;;;2090316;28;20196;-67
2021/08/29 02:43:47;;;;;;;4.10;3.28;;;10.40;93.40;;;;;;2090077;28;20291;-66
2021/08/29 02:44:48;;;;;;;4.15;2.83;;;10.40;93.30;;;;;;2098326;28;20179;-66
2021/08/29 02:45:49;;;;;;;8.50;3.47;;;10.40;93.20;;;;;;2098186;28;20246;-71
2021/08/29 02:46:51;;;;;;;4.40;3.37;;;10.40;93.30;;;;;;2089961;28;20203;-66
2021/08/29 02:47:52;;;;;;;4.10;2.92;;;10.40;93.40;;;;;;2089932;28;20176;-66
2021/08/29 02:48:53;;;;;;;3.10;2.40;;;10.40;93.50;;;;;;2089713;28;20172;-67
2021/08/29 02:49:54;;;;;;;2.88;2.60;;;10.50;93.50;;;;;;2089945;28;20702;-67
2021/08/29 02:50:56;;;;;;;4.47;2.83;;;10.40;93.20;;;;;;2097994;28;20204;-67
2021/08/29 02:51:57;;;;;;;3.65;2.53;;;10.50;93.30;;;;;;2098044;28;20221;-67
2021/08/29 02:52:58;;;;;;;3.20;2.47;;;10.40;93.20;;;;;;2089923;28;20610;-69
2021/08/29 02:53:58;;;;;;;5.33;3.27;;;10.50;93.30;;;;;;2098039;28;20214;-67
2021/08/29 02:55:00;;;;;;;5.13;2.63;;;10.50;93.20;;;;;;2098902;28;20229;-68
2021/08/29 02:56:04;;;;;;;4.00;2.97;;;10.50;93.20;;;;;;2098165;28;20610;-68
2021/08/29 02:57:06;;;;;;;4.13;2.92;;;10.50;93.30;;;;;;2098280;28;20638;-67
2021/08/29 02:58:07;;;;;;;4.15;2.63;;;10.60;93.30;;;;;;2090051;28;20219;-67
2021/08/29 02:59:08;;;;;;;2.95;2.45;;;10.60;93.20;;;;;;2081623;28;20184;-67
2021/08/29 03:00:13;;;;;;;5.38;3.05;;;10.60;93.20;;;;;;2081443;28;20702;-68
2021/08/29 03:01:14;;;;;;;4.28;2.55;;;10.60;93.10;;;;;;2097774;28;20179;-67
2021/08/29 03:02:14;;;;;;;3.80;2.57;;;10.60;93.10;;;;;;2098677;28;20179;-68
2021/08/29 03:03:15;;;;;;;3.67;2.50;;;10.60;93.10;;;;;;2098794;28;20682;-68
2021/08/29 03:04:16;;;;;;;4.07;2.93;;;10.60;93.00;;;;;;2097993;28;20184;-67
2021/08/29 03:05:17;;;;;;;3.93;2.97;;;10.70;93.00;;;;;;2098007;28;20940;-67
2021/08/29 03:06:18;;;;;;;5.77;2.70;;;10.70;93.00;;;;;;2098753;28;20273;-67
2021/08/29 03:07:19;;;;;;;4.10;2.90;;;10.70;93.10;;;;;;2097934;28;20188;-69
2021/08/29 03:08:20;;;;;;;4.53;3.50;;;10.60;93.20;;;;;;2098002;28;20733;-68
2021/08/29 03:09:21;;;;;;;4.07;2.60;;;10.60;93.30;;;;;;2098419;28;20931;-69
2021/08/29 03:10:22;;;;;;;3.30;2.90;;;10.60;93.30;;;;;;2097917;28;20193;-67
2021/08/29 03:11:22;;;;;;;3.85;2.58;;;10.60;93.40;;;;;;2089769;28;20185;-67
2021/08/29 03:12:24;;;;;;;6.10;2.80;;;10.60;93.40;;;;;;2089904;28;20187;-67
2021/08/29 03:13:28;;;;;;;5.70;3.45;;;10.60;93.40;;;;;;2089821;28;20187;-68
2021/08/29 03:14:29;;;;;;;5.75;3.42;;;10.60;93.50;;;;;;2090103;28;20215;-68
2021/08/29 03:15:32;;;;;;;5.65;3.10;;;10.60;93.50;;;;;;2089649;28;20179;-67
2021/08/29 03:16:32;;;;;;;5.95;2.72;;;10.60;93.50;;;;;;2098131;28;20198;-69
2021/08/29 03:17:33;;;;;;;2.63;2.07;;;10.70;93.50;;;;;;2098046;28;20178;-68
2021/08/29 03:18:35;;;;;;;3.63;2.33;;;10.70;93.20;;;;;;2097911;28;20308;-68
2021/08/29 03:19:35;;;;;;;4.00;2.28;;;10.70;93.10;;;;;;2097676;28;20341;-68
2021/08/29 03:20:36;;;;;;;4.57;2.67;;;10.70;93.10;;;;;;2097943;28;20253;-67
2021/08/29 03:21:37;;;;;;;4.50;3.00;;;10.70;93.00;;;;;;2097977;28;20206;-68
2021/08/29 03:22:39;;;;;;;4.30;2.97;;;10.70;93.10;;;;;;2098037;28;20178;-67
2021/08/29 03:23:40;;;;;;;5.53;3.80;;;10.70;93.20;;;;;;2098550;28;20225;-68
2021/08/29 03:24:41;;;;;;;8.63;3.97;;;10.70;93.20;;;;;;2097830;28;20219;-67
2021/08/29 03:25:42;;;;;;;4.60;3.10;;;10.70;93.30;;;;;;2097821;28;20234;-68
2021/08/29 03:26:43;;;;;;;3.78;3.10;;;10.70;93.30;;;;;;2098467;28;20211;-69
2021/08/29 03:27:45;;;;;;;6.00;3.55;;;10.80;93.30;;;;;;2098489;28;20182;-68
2021/08/29 03:28:46;;;;;;;3.53;2.45;;;10.80;93.20;;;;;;2089754;28;20193;-68
2021/08/29 03:29:46;;;;;;;6.87;3.70;;;10.80;93.10;;;;;;2089456;28;20176;-67
2021/08/29 03:30:47;;;;;;;4.13;2.77;;;10.80;93.10;;;;;;2098481;28;20257;-67
2021/08/29 03:31:48;;;;;;;3.03;2.57;;;10.80;93.10;;;;;;2098549;28;20267;-68
2021/08/29 03:32:48;;;;;;;5.60;2.87;;;10.80;93.10;;;;;;2097856;28;20233;-67
2021/08/29 03:33:51;;;;;;;5.13;2.67;;;10.80;93.10;;;;;;2097653;28;20670;-68
2021/08/29 03:35:00;;;;;;;5.63;2.55;;;10.80;93.10;;;;;;2097979;28;20180;-68
2021/08/29 03:36:01;;;;;;;3.88;2.28;;;10.80;93.10;;;;;;2090662;28;20195;-67
2021/08/29 03:37:04;;;;;;;7.57;3.17;;;10.70;93.00;;;;;;2089780;28;20236;-67
2021/08/29 03:38:06;;;;;;;2.95;2.50;;;10.70;93.20;;;;;;2089766;28;20181;-67
2021/08/29 03:39:09;;;;;;;4.43;2.85;;;10.70;93.20;;;;;;2097520;28;20646;-67
2021/08/29 03:40:10;;;;;;;4.72;3.00;;;10.70;93.30;;;;;;2098309;28;20546;-68
2021/08/29 03:41:15;;;;;;;7.75;2.85;;;10.70;93.40;;;;;;2097800;28;20184;-67
2021/08/29 03:42:19;;;;;;;4.15;2.60;;;10.70;93.40;;;;;;2090149;28;20659;-67
2021/08/29 03:43:20;;;;;;;4.90;3.25;;;10.70;93.30;;;;;;2094317;28;20258;-68
2021/08/29 03:44:21;;;;;;;5.20;3.40;;;10.70;93.30;;;;;;2106214;28;20676;-67
2021/08/29 03:45:22;;;;;;;4.47;3.13;;;10.70;93.30;;;;;;2106301;28;20214;-68
2021/08/29 03:46:23;;;;;;;3.88;2.72;;;10.70;93.30;;;;;;2106187;28;20284;-67
2021/08/29 03:47:24;;;;;;;5.07;2.93;;;10.80;93.40;;;;;;2106270;28;20179;-67
2021/08/29 03:48:25;;;;;;;3.83;2.88;;;10.80;93.40;;;;;;2097632;28;20437;-67
2021/08/29 03:49:26;;;;;;;7.40;3.47;;;10.90;93.30;;;;;;2105893;28;20194;-68
2021/08/29 03:50:27;;;;;;;6.50;3.30;;;10.90;93.20;;;;;;2106599;28;20198;-67
2021/08/29 03:51:28;;;;;;;2.90;2.28;;;10.90;93.20;;;;;;2106527;28;20754;-68
2021/08/29 03:52:30;;;;;;;3.42;3.13;;;10.90;93.70;;;;;;2106781;28;20641;-67
2021/08/29 03:53:31;;;;;;;4.93;2.85;;;10.90;93.10;;;;;;2106196;28;20189;-67
2021/08/29 03:54:32;;;;;;;4.43;2.97;;;10.90;93.10;;;;;;2097650;28;20316;-68
2021/08/29 03:55:33;;;;;;;3.00;2.40;;;10.90;93.10;;;;;;2106335;28;20179;-67
2021/08/29 03:56:35;;;;;;;4.37;3.00;;;10.90;93.10;;;;;;2106759;28;20459;-67
2021/08/29 03:57:37;;;;;;;8.38;2.55;;;11.00;93.00;;;;;;2106711;28;20427;-67
2021/08/29 03:58:42;;;;;;;3.63;2.35;;;11.00;92.90;;;;;;2106072;28;20167;-68
2021/08/29 03:59:43;;;;;;;3.03;2.72;;;11.00;92.80;;;;;;2105996;28;20175;-67
2021/08/29 04:00:44;;;;;;;4.80;2.50;;;11.00;92.60;;;;;;2106455;28;20274;-67
2021/08/29 04:01:45;;;;;;;3.97;2.90;;;11.00;92.70;;;;;;2106700;28;20904;-68
2021/08/29 04:02:46;;;;;;;3.50;2.27;;;11.00;92.60;;;;;;2106578;28;20178;-67
2021/08/29 04:03:46;;;;;;;5.63;3.35;;;11.00;92.60;;;;;;2105963;28;20224;-67
2021/08/29 04:04:47;;;;;;;4.00;2.60;;;11.00;92.70;;;;;;2097710;28;20218;-67
2021/08/29 04:05:48;;;;;;;2.97;2.63;;;11.00;92.70;;;;;;2105998;28;20558;-67
2021/08/29 04:06:49;;;;;;;4.85;3.10;;;11.00;92.60;;;;;;2105892;28;20273;-68
2021/08/29 04:07:52;;;;;;;5.50;3.38;;;11.00;92.70;;;;;;2106001;28;20226;-67
2021/08/29 04:08:57;;;;;;;4.43;2.55;;;11.10;92.70;;;;;;2105809;28;20212;-67
2021/08/29 04:09:58;;;;;;;5.28;3.17;;;11.10;92.60;;;;;;2106122;28;20182;-68
2021/08/29 04:11:01;;;;;;;5.25;2.55;;;11.10;92.50;;;;;;2105907;28;20224;-67
2021/08/29 04:12:03;;;;;;;5.15;2.97;;;11.10;92.20;;;;;;2105890;28;20207;-66
2021/08/29 04:13:05;;;;;;;4.32;2.15;;;11.10;92.30;;;;;;2106161;28;20179;-68
2021/08/29 04:14:06;;;;;;;3.65;2.55;;;11.10;92.30;;;;;;2106567;28;20190;-67
2021/08/29 04:15:07;;;;;;;3.33;2.50;;;11.10;92.40;;;;;;2105928;28;20186;-67
2021/08/29 04:16:08;;;;;;;3.28;2.53;;;11.10;92.40;;;;;;2097697;28;20187;-67
2021/08/29 04:17:10;;;;;;;4.17;2.80;;;11.10;92.40;;;;;;2106068;28;20167;-68
2021/08/29 04:18:11;;;;;;;7.28;2.97;;;11.10;92.40;;;;;;2106001;28;20576;-67
2021/08/29 04:19:18;;;;;;;3.05;2.40;;;11.20;92.40;;;;;;2105826;28;20190;-67
2021/08/29 04:20:19;;;;;;;3.58;2.10;;;11.20;92.50;;;;;;2106045;28;20167;-67
2021/08/29 04:21:25;;;;;;;4.30;3.07;;;11.20;92.50;;;;;;2097658;28;20628;-68
2021/08/29 04:22:26;;;;;;;2.97;2.10;;;11.20;92.60;;;;;;2106044;28;20186;-68
2021/08/29 04:23:27;;;;;;;4.45;2.90;;;11.30;92.50;;;;;;2106517;28;20206;-67
2021/08/29 04:24:28;;;;;;;2.57;2.00;;;11.30;92.40;;;;;;2106491;28;20198;-69
2021/08/29 04:25:29;;;;;;;4.53;3.03;;;11.30;92.30;;;;;;2106485;28;20284;-67
2021/08/29 04:26:30;;;;;;;4.65;3.10;;;11.20;92.40;;;;;;2106523;28;20210;-67
2021/08/29 04:27:31;;;;;;;3.60;2.67;;;11.20;92.50;;;;;;2106483;28;20186;-67
2021/08/29 04:28:32;;;;;;;3.50;2.70;;;11.20;92.50;;;;;;2106568;28;20222;-67
2021/08/29 04:29:34;;;;;;;3.40;2.63;;;11.30;92.50;;;;;;2106356;28;20171;-66
2021/08/29 04:30:35;;;;;;;4.63;3.22;;;11.30;92.30;;;;;;2106476;28;20228;-67
2021/08/29 04:31:36;;;;;;;3.83;2.67;;;11.30;92.30;;;;;;2106464;28;20179;-68
2021/08/29 04:32:39;;;;;;;3.78;2.13;;;11.30;92.30;;;;;;2106461;28;20254;-67
2021/08/29 04:33:40;;;;;;;4.78;2.97;;;11.30;92.40;;;;;;2105812;28;20634;-67
2021/08/29 04:34:41;;;;;;;3.33;2.47;;;11.30;92.50;;;;;;2105729;28;20207;-67
2021/08/29 04:35:42;;;;;;;3.97;2.20;;;11.30;92.50;;;;;;2106543;28;20174;-68
2021/08/29 04:36:42;;;;;;;4.77;3.00;;;11.30;92.50;;;;;;2106367;28;20174;-68
2021/08/29 04:37:43;;;;;;;5.13;2.77;;;11.30;92.60;;;;;;2106020;28;20213;-67
2021/08/29 04:38:44;;;;;;;3.07;2.47;;;11.30;92.60;;;;;;2105696;28;20640;-68
2021/08/29 04:39:45;;;;;;;2.70;2.23;;;11.40;92.50;;;;;;2106432;28;20175;-67
2021/08/29 04:40:46;;;;;;;3.50;2.40;;;11.40;92.40;;;;;;2105888;28;20233;-67
2021/08/29 04:41:47;;;;;;;4.22;2.65;;;11.40;92.20;;;;;;2097559;28;20324;-67
2021/08/29 04:42:48;;;;;;;3.37;2.47;;;11.40;92.20;;;;;;2105857;28;20291;-67
2021/08/29 04:43:48;;;;;;;4.47;2.40;;;11.40;92.30;;;;;;2106580;28;20183;-67
2021/08/29 04:44:49;;;;;;;2.73;2.13;;;11.40;92.40;;;;;;2106397;28;20208;-67
2021/08/29 04:45:49;;;;;;;4.07;2.50;;;11.30;92.60;;;;;;2106490;28;20542;-67
2021/08/29 04:46:50;;;;;;;2.57;2.37;;;11.30;92.70;;;;;;2106512;28;20224;-69
2021/08/29 04:47:51;;;;;;;3.80;2.10;;;11.30;92.80;;;;;;2106391;28;20189;-69
2021/08/29 04:48:51;;;;;;;3.17;1.97;;;11.30;92.70;;;;;;2105526;28;20175;-67
2021/08/29 04:49:52;;;;;;;3.13;2.27;;;11.30;93.20;;;;;;2106033;28;20663;-69
2021/08/29 04:50:53;;;;;;;5.23;2.83;;;11.30;92.70;;;;;;2106044;28;20219;-68
2021/08/29 04:51:54;;;;;;;2.28;1.88;;;11.40;92.80;;;;;;2106183;28;20175;-68
2021/08/29 04:52:54;;;;;;;3.07;2.50;;;11.40;92.70;;;;;;2106206;28;20181;-68
2021/08/29 04:53:55;;;;;;;3.30;1.87;;;11.30;92.50;;;;;;2106044;28;20183;-68
2021/08/29 04:54:57;;;;;;;4.63;2.30;;;11.30;92.80;;;;;;2106133;28;20291;-69
2021/08/29 04:55:57;;;;;;;3.13;2.10;;;11.20;92.80;;;;;;2097090;28;20203;-68
2021/08/29 04:56:58;;;;;;;2.17;1.50;;;11.10;92.80;;;;;;2094023;28;20270;-69
2021/08/29 04:57:59;;;;;;;4.00;2.73;;;11.20;93.40;;;;;;2091831;28;20234;-68
2021/08/29 04:58:59;;;;;;;3.30;2.50;;;11.20;92.90;;;;;;2096636;28;20202;-68
2021/08/29 05:00:00;;;;;;;3.53;2.57;;;11.30;92.90;;;;;;2102110;28;20179;-69
2021/08/29 05:01:01;;;;;;;2.60;1.80;;;11.20;93.00;;;;;;2101725;28;20206;-68
2021/08/29 05:02:01;;;;;;;3.43;2.33;;;11.20;93.50;;;;;;2106186;28;20202;-68
2021/08/29 05:03:03;;;;;;;3.20;2.50;;;11.20;93.60;;;;;;2105533;28;20225;-68
2021/08/29 05:04:04;;;;;;;2.80;2.42;;;11.10;93.90;;;;;;2105603;28;20183;-68
2021/08/29 05:05:06;;;;;;;3.20;2.10;;;11.10;93.80;;;;;;2105542;28;20182;-69
2021/08/29 05:06:06;;;;;;;4.60;2.65;;;11.10;93.70;;;;;;2105439;28;20219;-69
2021/08/29 05:07:07;;;;;;;2.43;2.17;;;11.10;93.50;;;;;;2106164;28;20171;-68
2021/08/29 05:08:08;;;;;;;3.27;2.70;;;11.10;93.30;;;;;;2106162;28;20205;-67
2021/08/29 05:09:08;;;;;;;2.47;1.93;;;11.20;93.20;;;;;;2105618;28;20549;-69
2021/08/29 05:10:10;;;;;;;3.07;2.30;;;11.20;93.10;;;;;;2106003;28;20515;-68
2021/08/29 05:11:10;;;;;;;2.75;2.20;;;11.30;92.80;;;;;;2105669;28;20179;-68
2021/08/29 05:12:11;;;;;;;3.37;2.43;;;11.20;92.70;;;;;;2105374;28;20202;-67
2021/08/29 05:13:12;;;;;;;3.53;2.40;;;11.10;92.90;;;;;;2105587;28;20183;-68
2021/08/29 05:14:12;;;;;;;3.23;2.83;;;11.10;93.10;;;;;;2105338;28;20207;-68
2021/08/29 05:15:13;;;;;;;3.90;2.77;;;11.10;93.10;;;;;;2105601;28;20547;-69
2021/08/29 05:16:14;;;;;;;3.93;2.87;;;11.10;93.30;;;;;;2105443;28;20207;-68
2021/08/29 05:17:14;;;;;;;3.30;2.90;;;11.10;93.30;;;;;;2105588;28;20179;-67
2021/08/29 05:18:16;;;;;;;3.27;2.57;;;11.10;93.30;;;;;;2105509;28;20187;-68
2021/08/29 05:19:17;;;;;;;3.80;2.67;;;11.10;93.30;;;;;;2105531;28;20661;-69
2021/08/29 05:20:18;;;;;;;5.23;2.83;;;11.10;93.20;;;;;;2105867;28;20186;-68
2021/08/29 05:21:18;;;;;;;3.77;2.53;;;11.10;93.20;;;;;;2105543;28;20175;-68
2021/08/29 05:22:19;;;;;;;4.63;2.83;;;11.10;93.20;;;;;;2105402;28;20183;-69
2021/08/29 05:23:20;;;;;;;3.67;2.63;;;11.20;93.30;;;;;;2106168;28;20229;-67